»·PEaware :: N323DM L71-KSNA

N323DM :: L71-KSNA

FLIGHT INFORMATION

Flight Status: Arrived
Operator: Privately registered:
United States
More flights under this callsign
Pilot: Gord H. (12075)
Aircraft: BEECH AIRCRAFT BARON
(BE58)
More flights by this aircraft type
Origin: L71 California City Mun
United States
Destination: KSNA John Wayne-Orange Co
United States
More flights between these airports :: More routes between these airports
Route: PMD V201 BERRI V459 SLI
File this flight plan on PilotEdge
Remarks:
Altitude:
(Current/Filed)
8,500ft
Speed:
(Current/Filed)
170kts
Departed: 03-Sep-18 04:29 AM
Arrived: 03-Sep-18 05:25 AM
Distance/Time
Traveled:
89nm/0:55
Distance/Time
To Go:
Arrived

Flight Plot

Page will automatically refresh every two minutes.

Flight plan parsing failed; only flown route is shown


Map Options




Map Legend


Flown Route
Filed Route
Departure Airport
Arrival Airport
Navaid (VOR, NDB)
Fix

Horizontal Profiles

Position Reports

Time Latitude Longitude Heading Altitude Ground
Speed
03-Sep-18 04:27 35.150683 -118.016050 71 2436ft 10kts
03-Sep-18 04:28 35.152523 -118.007219 73 2436ft 26kts
03-Sep-18 04:29 35.153257 -118.007217 254 2436ft 0kts
03-Sep-18 04:30 35.147980 -118.030857 255 3069ft 120kts
03-Sep-18 04:31 35.129502 -118.061925 199 4803ft 123kts
03-Sep-18 04:32 35.095950 -118.065716 177 6299ft 130kts
03-Sep-18 04:33 35.056595 -118.065448 177 7214ft 154kts
03-Sep-18 04:34 35.016394 -118.065285 176 8357ft 147kts
03-Sep-18 04:35 34.977403 -118.065121 176 9386ft 147kts
03-Sep-18 04:37 34.936197 -118.064934 176 10003ft 162kts
03-Sep-18 04:38 34.879708 -118.064744 178 8190ft 218kts
03-Sep-18 04:41 35.153267 -118.007152 255 2436ft 0kts
03-Sep-18 04:42 35.148679 -118.029331 257 2670ft 117kts
03-Sep-18 04:43 35.135111 -118.066297 194 3808ft 129kts
03-Sep-18 04:44 35.099960 -118.066083 177 5116ft 127kts
03-Sep-18 04:45 35.065314 -118.065551 177 6297ft 129kts
03-Sep-18 04:46 35.028786 -118.065314 177 7432ft 133kts
03-Sep-18 04:47 34.990148 -118.065122 177 8135ft 159kts
03-Sep-18 04:48 34.941511 -118.064970 177 8116ft 183kts
03-Sep-18 04:49 34.891588 -118.064796 177 8113ft 185kts
03-Sep-18 04:50 34.850170 -118.064633 177 8112ft 186kts
03-Sep-18 04:51 34.798648 -118.064369 179 8114ft 182kts
03-Sep-18 04:52 34.749252 -118.064263 178 8112ft 176kts
03-Sep-18 04:53 34.701021 -118.064076 178 8113ft 174kts
03-Sep-18 04:54 34.652822 -118.063872 178 8114ft 174kts
03-Sep-18 04:55 34.606188 -118.077227 200 8115ft 177kts
03-Sep-18 04:56 34.562139 -118.100600 201 8115ft 177kts
03-Sep-18 04:57 34.517773 -118.124143 201 8113ft 177kts
03-Sep-18 04:58 34.473790 -118.147462 201 8110ft 176kts
03-Sep-18 04:59 34.429958 -118.170676 201 8107ft 177kts
03-Sep-18 05:00 34.384910 -118.194507 201 8102ft 177kts
03-Sep-18 05:01 34.340027 -118.218216 201 8096ft 177kts
03-Sep-18 05:02 34.295357 -118.241789 201 8091ft 177kts
03-Sep-18 05:03 34.250951 -118.265195 201 8088ft 177kts
03-Sep-18 05:04 34.206775 -118.288451 201 8087ft 177kts
03-Sep-18 05:05 34.162553 -118.272781 154 8088ft 173kts
03-Sep-18 05:06 34.123810 -118.250789 154 8087ft 173kts
03-Sep-18 05:07 34.083516 -118.227580 153 8090ft 173kts
03-Sep-18 05:08 34.043587 -118.204526 153 8066ft 175kts
03-Sep-18 05:09 33.992599 -118.175127 154 5435ft 219kts
03-Sep-18 05:10 33.944005 -118.147023 154 4945ft 170kts
03-Sep-18 05:11 33.905499 -118.124874 154 4750ft 164kts
03-Sep-18 05:12 33.869723 -118.104319 155 4253ft 171kts
03-Sep-18 05:13 33.827476 -118.080037 155 3981ft 165kts
03-Sep-18 05:14 33.790868 -118.051743 104 3984ft 173kts
03-Sep-18 05:15 33.806552 -117.997191 65 3983ft 179kts
03-Sep-18 05:16 33.809522 -117.944967 122 3964ft 176kts
03-Sep-18 05:17 33.812071 -117.886295 82 3376ft 197kts
03-Sep-18 05:18 33.830275 -117.830048 28 2889ft 192kts
03-Sep-18 05:19 33.870611 -117.800774 64 2885ft 171kts
03-Sep-18 05:20 33.842160 -117.769092 169 2893ft 162kts
03-Sep-18 05:21 33.803765 -117.787457 208 2735ft 148kts
03-Sep-18 05:22 33.770567 -117.808572 207 2061ft 119kts
03-Sep-18 05:22 33.746560 -117.823856 207 1529ft 118kts
03-Sep-18 05:23 33.719188 -117.841237 207 924ft 101kts
03-Sep-18 05:25 33.691843 -117.858589 207 321ft 92kts
03-Sep-18 05:26 33.672925 -117.870607 206 57ft 42kts
03-Sep-18 05:26 33.669482 -117.870554 39 57ft 14kts
03-Sep-18 05:27 33.671634 -117.867644 27 57ft 0kts
03-Sep-18 05:28 33.671634 -117.867644 27 57ft 0kts

Navigation Log

Ident Type
Flight plan parsing failed, navigation log unavailable